createdAt,value
2022-10-22T00:02:44.548Z,11.40
2022-10-22T00:05:50.372Z,13.30
2022-10-22T00:08:55.904Z,11.30
2022-10-22T00:12:01.658Z,7.70
2022-10-22T00:15:08.914Z,7.30
2022-10-22T00:18:14.394Z,10.50
2022-10-22T00:21:19.837Z,10.40
2022-10-22T00:24:25.521Z,13.10
2022-10-22T00:27:31.147Z,12.00
2022-10-22T00:30:36.695Z,12.40
2022-10-22T00:33:42.601Z,11.80
2022-10-22T00:36:48.715Z,10.30
2022-10-22T00:39:54.264Z,10.10
2022-10-22T00:43:00.224Z,9.80
2022-10-22T00:46:06.284Z,8.80
2022-10-22T00:49:11.733Z,9.50
2022-10-22T00:52:17.486Z,8.40
2022-10-22T00:55:24.245Z,9.40
2022-10-22T00:58:34.441Z,12.10
2022-10-22T01:01:39.890Z,11.10
2022-10-22T01:04:45.877Z,11.60
2022-10-22T01:07:53.834Z,10.30
2022-10-22T01:11:13.720Z,11.20
2022-10-22T01:14:25.414Z,11.50
2022-10-22T01:17:38.829Z,10.30
2022-10-22T01:21:04.058Z,10.70
2022-10-22T01:24:54.560Z,11.20
2022-10-22T01:28:10.783Z,10.80
2022-10-22T01:31:17.993Z,11.10
2022-10-22T01:34:26.978Z,10.40
2022-10-22T01:37:35.659Z,9.40
2022-10-22T01:40:42.818Z,9.40
2022-10-22T01:43:48.296Z,7.70
2022-10-22T01:47:00.032Z,8.30
2022-10-22T01:50:20.777Z,10.00
2022-10-22T01:53:33.924Z,8.50
2022-10-22T01:56:55.766Z,7.70
2022-10-22T02:00:06.725Z,9.80
2022-10-22T02:03:19.899Z,10.10
2022-10-22T02:09:35.027Z,10.30
2022-10-22T02:12:43.098Z,9.60
2022-10-22T02:15:51.054Z,10.70
2022-10-22T02:18:59.350Z,11.10
2022-10-22T02:22:05.090Z,10.70
2022-10-22T02:25:11.746Z,11.00
2022-10-22T02:28:24.825Z,10.90
2022-10-22T02:31:33.437Z,11.50
2022-10-22T02:34:39.050Z,10.70
2022-10-22T02:37:45.486Z,9.70
2022-10-22T02:40:51.092Z,9.60
2022-10-22T02:43:57.949Z,10.30
2022-10-22T02:47:03.499Z,7.10
2022-10-22T02:50:10.649Z,8.10
2022-10-22T02:53:16.094Z,7.60
2022-10-22T02:56:21.683Z,7.80
2022-10-22T02:59:27.237Z,9.60
2022-10-22T03:02:32.802Z,9.40
2022-10-22T03:05:38.437Z,10.10
2022-10-22T03:08:44.003Z,8.80
2022-10-22T03:11:49.635Z,8.90
2022-10-22T03:14:55.041Z,7.80
2022-10-22T03:18:00.633Z,7.00
2022-10-22T03:21:11.813Z,7.00
2022-10-22T03:24:22.713Z,7.70
2022-10-22T03:27:30.362Z,8.20
2022-10-22T03:30:35.938Z,8.00
2022-10-22T03:33:41.355Z,7.30
2022-10-22T03:36:47.547Z,6.70
2022-10-22T03:39:54.019Z,7.60
2022-10-22T03:42:59.670Z,7.90
2022-10-22T03:46:05.218Z,6.90
2022-10-22T03:49:10.922Z,6.70
2022-10-22T03:52:17.238Z,8.30
2022-10-22T03:58:27.006Z,7.00
2022-10-22T04:01:33.351Z,6.80
2022-10-22T04:07:43.623Z,6.10
2022-10-22T04:10:54.737Z,6.30
2022-10-22T04:14:00.235Z,6.20
2022-10-22T04:17:05.731Z,6.30
2022-10-22T04:20:13.122Z,6.60
2022-10-22T04:23:18.509Z,6.20
2022-10-22T04:26:24.444Z,6.40
2022-10-22T04:29:29.873Z,6.10
2022-10-22T04:32:35.323Z,6.00
2022-10-22T04:35:42.414Z,6.20
2022-10-22T04:38:52.902Z,6.30
2022-10-22T04:41:58.419Z,6.50
2022-10-22T04:45:03.970Z,6.30
2022-10-22T04:48:10.030Z,6.70
2022-10-22T04:51:17.577Z,7.90
2022-10-22T04:54:23.381Z,8.60
2022-10-22T04:57:32.076Z,8.00
2022-10-22T05:00:37.526Z,7.70
2022-10-22T05:03:43.306Z,6.90
2022-10-22T05:06:48.855Z,7.00
2022-10-22T05:09:54.611Z,6.70
2022-10-22T05:13:00.017Z,6.60
2022-10-22T05:16:06.430Z,7.20
2022-10-22T05:19:18.407Z,8.20
2022-10-22T05:22:23.790Z,8.20
2022-10-22T05:25:29.320Z,8.00
2022-10-22T05:28:35.484Z,7.90
2022-10-22T05:31:41.238Z,7.60
2022-10-22T05:34:46.688Z,8.80
2022-10-22T05:37:52.160Z,8.70
2022-10-22T05:41:03.967Z,8.60
2022-10-22T05:44:12.522Z,7.90
2022-10-22T05:47:17.998Z,7.30
2022-10-22T05:50:23.444Z,7.70
2022-10-22T05:53:28.891Z,8.60
2022-10-22T05:56:35.015Z,9.70
2022-10-22T05:59:40.808Z,9.00
2022-10-22T06:02:50.281Z,10.00
2022-10-22T06:05:56.986Z,11.90
2022-10-22T06:09:06.503Z,12.80
2022-10-22T06:12:13.911Z,12.60
2022-10-22T06:15:21.361Z,11.80
2022-10-22T06:18:26.804Z,11.50
2022-10-22T06:21:33.600Z,13.20
2022-10-22T06:24:41.599Z,11.60
2022-10-22T06:27:53.179Z,12.20
2022-10-22T06:31:00.193Z,11.40
2022-10-22T06:34:06.304Z,11.50
2022-10-22T06:37:13.941Z,11.10
2022-10-22T06:40:19.667Z,10.20
2022-10-22T06:43:25.124Z,11.80
2022-10-22T06:46:31.956Z,11.40
2022-10-22T06:49:37.585Z,11.10
2022-10-22T06:52:43.138Z,11.00
2022-10-22T06:55:48.755Z,12.40
2022-10-22T06:58:55.451Z,12.60
2022-10-22T07:02:00.981Z,13.80
2022-10-22T07:05:07.379Z,12.70
2022-10-22T07:11:19.164Z,12.90
2022-10-22T07:14:24.580Z,11.70
2022-10-22T07:17:30.218Z,11.50
2022-10-22T07:20:35.813Z,13.40
2022-10-22T07:23:41.873Z,12.80
2022-10-22T07:26:47.424Z,10.90
2022-10-22T07:29:53.180Z,10.60
2022-10-22T07:32:58.636Z,10.80
2022-10-22T07:36:07.150Z,11.70
2022-10-22T07:39:12.592Z,11.20
2022-10-22T07:42:18.218Z,11.30
2022-10-22T07:45:23.677Z,11.70
2022-10-22T07:48:29.417Z,11.60
2022-10-22T07:51:34.993Z,10.70
2022-10-22T07:54:40.543Z,14.20
2022-10-22T07:57:46.092Z,11.20
2022-10-22T08:00:52.401Z,10.70
2022-10-22T08:03:57.908Z,10.40
2022-10-22T08:07:03.478Z,8.90
2022-10-22T08:10:11.797Z,20.50
2022-10-22T08:13:17.832Z,11.20
2022-10-22T08:16:23.381Z,17.40
2022-10-22T08:19:29.957Z,27.20
2022-10-22T08:22:35.504Z,12.30
2022-10-22T08:25:40.958Z,10.80
2022-10-22T08:28:46.418Z,11.10
2022-10-22T08:31:53.853Z,10.20
2022-10-22T08:34:59.307Z,11.20
2022-10-22T08:38:05.228Z,11.20
2022-10-22T08:41:15.458Z,9.40
2022-10-22T08:44:44.761Z,10.00
2022-10-22T08:48:08.845Z,10.50
2022-10-22T08:51:18.901Z,9.50
2022-10-22T08:54:33.221Z,9.10
2022-10-22T08:57:52.437Z,9.10
2022-10-22T09:01:04.327Z,11.00
2022-10-22T09:04:19.753Z,10.30
2022-10-22T09:07:25.358Z,9.60
2022-10-22T09:10:36.743Z,12.60
2022-10-22T09:13:44.236Z,31.60
2022-10-22T09:17:10.880Z,20.60
2022-10-22T09:20:26.929Z,14.20
2022-10-22T09:23:39.629Z,13.50
2022-10-22T09:26:45.243Z,13.30
2022-10-22T09:29:51.103Z,13.70
2022-10-22T09:33:01.565Z,12.90
2022-10-22T09:36:08.809Z,14.10
2022-10-22T09:39:28.332Z,12.90
2022-10-22T09:42:35.055Z,13.40
2022-10-22T09:45:40.558Z,12.50
2022-10-22T09:48:52.876Z,12.20
2022-10-22T09:52:00.189Z,11.70
2022-10-22T09:55:17.329Z,12.00
2022-10-22T09:58:23.381Z,12.30
2022-10-22T10:04:41.752Z,12.60
2022-10-22T10:07:48.586Z,11.90
2022-10-22T10:10:57.822Z,13.20
2022-10-22T10:14:14.330Z,12.60
2022-10-22T10:17:29.399Z,12.80
2022-10-22T10:20:42.632Z,13.50
2022-10-22T10:23:55.394Z,13.70
2022-10-22T10:27:08.525Z,16.00
2022-10-22T10:30:17.418Z,13.20
2022-10-22T10:33:33.158Z,14.60
2022-10-22T10:36:46.421Z,14.80
2022-10-22T10:40:25.762Z,14.50
2022-10-22T10:43:39.748Z,13.50
2022-10-22T10:46:56.333Z,13.00
2022-10-22T10:50:15.281Z,11.20
2022-10-22T10:53:35.732Z,11.40
2022-10-22T10:56:45.886Z,11.20
2022-10-22T11:00:07.258Z,11.50
2022-10-22T11:03:52.751Z,11.70
2022-10-22T11:07:11.554Z,12.30
2022-10-22T11:10:29.861Z,13.80
2022-10-22T11:13:39.701Z,13.40
2022-10-22T11:16:50.805Z,14.70
2022-10-22T11:20:02.370Z,12.20
2022-10-22T11:23:19.588Z,12.10
2022-10-22T11:26:37.023Z,12.50
2022-10-22T11:29:48.714Z,12.40
2022-10-22T11:32:57.222Z,26.70
2022-10-22T11:36:06.488Z,14.80
2022-10-22T11:39:33.044Z,13.00
2022-10-22T11:42:43.416Z,12.90
2022-10-22T11:45:58.241Z,13.00
2022-10-22T11:49:20.632Z,13.10
2022-10-22T11:52:39.172Z,12.70
2022-10-22T11:55:49.043Z,12.90
2022-10-22T12:02:38.624Z,13.80
2022-10-22T12:05:44.548Z,14.30
2022-10-22T12:08:58.098Z,13.50
2022-10-22T12:12:15.068Z,13.60
2022-10-22T12:15:27.686Z,15.80
2022-10-22T12:18:42.483Z,16.30
2022-10-22T12:21:53.812Z,16.80
2022-10-22T12:25:03.721Z,16.90
2022-10-22T12:28:16.149Z,16.20
2022-10-22T12:31:21.679Z,17.20
2022-10-22T12:34:29.498Z,18.90
2022-10-22T12:37:38.040Z,17.60
2022-10-22T12:40:47.656Z,18.60
2022-10-22T12:44:02.004Z,17.60
2022-10-22T12:47:09.542Z,18.50
2022-10-22T12:50:20.500Z,21.10
2022-10-22T12:53:30.077Z,23.90
2022-10-22T12:56:37.715Z,25.40
2022-10-22T12:59:48.897Z,21.90
2022-10-22T13:02:58.645Z,31.70
2022-10-22T13:06:26.211Z,20.80
2022-10-22T13:09:41.726Z,18.40
2022-10-22T13:12:52.444Z,18.00
2022-10-22T13:15:57.883Z,18.00
2022-10-22T13:19:03.343Z,18.20
2022-10-22T13:22:30.850Z,17.90
2022-10-22T13:25:38.669Z,18.30
2022-10-22T13:28:50.725Z,17.50
2022-10-22T13:31:56.687Z,19.60
2022-10-22T13:35:04.045Z,19.20
2022-10-22T13:38:18.377Z,18.00
2022-10-22T13:41:25.595Z,22.60
2022-10-22T13:44:31.069Z,22.20
2022-10-22T13:47:36.701Z,23.40
2022-10-22T13:50:42.317Z,25.70
2022-10-22T13:53:50.223Z,21.80
2022-10-22T13:56:55.866Z,22.70
2022-10-22T14:00:01.823Z,20.80
2022-10-22T14:03:11.453Z,20.20
2022-10-22T14:06:19.125Z,20.30
2022-10-22T14:09:24.577Z,23.90
2022-10-22T14:12:30.126Z,26.10
2022-10-22T14:15:35.882Z,26.50
2022-10-22T14:18:42.252Z,28.30
2022-10-22T14:21:49.289Z,27.90
2022-10-22T14:24:55.312Z,28.10
2022-10-22T14:28:00.844Z,28.30
2022-10-22T14:31:06.698Z,27.00
2022-10-22T14:34:13.811Z,27.70
2022-10-22T14:37:21.472Z,28.50
2022-10-22T14:40:27.033Z,28.10
2022-10-22T14:43:33.401Z,26.30
2022-10-22T14:46:40.181Z,26.40
2022-10-22T14:49:45.729Z,24.70
2022-10-22T14:52:51.380Z,26.30
2022-10-22T14:55:59.694Z,27.40
2022-10-22T14:59:05.149Z,29.00
2022-10-22T15:02:12.972Z,31.30
2022-10-22T15:05:19.257Z,40.40
2022-10-22T15:08:25.525Z,35.70
2022-10-22T15:11:30.985Z,32.70
2022-10-22T15:14:36.432Z,31.40
2022-10-22T15:17:42.222Z,35.80
2022-10-22T15:23:52.199Z,35.90
2022-10-22T15:26:57.885Z,35.00
2022-10-22T15:33:13.763Z,34.00
2022-10-22T15:36:19.516Z,35.40
2022-10-22T15:39:25.782Z,33.80
2022-10-22T15:45:35.221Z,31.80
2022-10-22T15:48:41.349Z,29.70
2022-10-22T15:54:51.277Z,30.80
2022-10-22T15:58:00.592Z,33.70
2022-10-22T16:01:11.259Z,54.60
2022-10-22T16:04:16.832Z,61.90
2022-10-22T16:07:23.989Z,53.40
2022-10-22T16:10:30.596Z,48.80
2022-10-22T16:13:37.314Z,54.60
2022-10-22T16:16:46.257Z,35.60
2022-10-22T16:19:52.056Z,33.60
2022-10-22T16:22:57.606Z,38.60
2022-10-22T16:26:05.407Z,41.70
2022-10-22T16:29:12.617Z,40.00
2022-10-22T16:32:18.248Z,49.40
2022-10-22T16:35:23.796Z,44.30
2022-10-22T16:38:29.755Z,45.90
2022-10-22T16:41:38.661Z,41.70
2022-10-22T16:44:44.643Z,37.00
2022-10-22T16:47:51.285Z,37.20
2022-10-22T16:50:56.970Z,38.30
2022-10-22T16:54:03.737Z,38.40
2022-10-22T16:57:12.471Z,38.90
2022-10-22T17:00:19.385Z,43.50
2022-10-22T17:03:27.543Z,39.80
2022-10-22T17:06:34.068Z,40.80
2022-10-22T17:09:39.687Z,39.00
2022-10-22T17:12:45.238Z,40.10
2022-10-22T17:15:50.668Z,40.10
2022-10-22T17:18:57.921Z,39.30
2022-10-22T17:22:03.357Z,39.10
2022-10-22T17:25:16.200Z,42.20
2022-10-22T17:28:21.688Z,40.70
2022-10-22T17:31:28.772Z,45.40
2022-10-22T17:34:34.322Z,44.70
2022-10-22T17:37:40.243Z,43.10
2022-10-22T17:40:46.137Z,42.90
2022-10-22T17:43:51.760Z,42.40
2022-10-22T17:46:57.339Z,42.90
2022-10-22T17:50:02.785Z,41.70
2022-10-22T17:53:08.542Z,42.00
2022-10-22T17:56:16.553Z,43.90
2022-10-22T17:59:22.096Z,56.50
2022-10-22T18:02:28.718Z,39.50
2022-10-22T18:05:36.491Z,43.60
2022-10-22T18:08:42.457Z,40.10
2022-10-22T18:11:48.661Z,39.70
2022-10-22T18:17:58.207Z,36.90
2022-10-22T18:21:05.298Z,36.90
2022-10-22T18:24:12.020Z,37.00
2022-10-22T18:27:17.469Z,40.70
2022-10-22T18:30:23.018Z,41.80
2022-10-22T18:33:28.517Z,42.20
2022-10-22T18:36:34.015Z,44.40
2022-10-22T18:39:39.565Z,44.70
2022-10-22T18:42:45.314Z,47.30
2022-10-22T18:48:58.516Z,34.50
2022-10-22T18:52:04.525Z,31.50
2022-10-22T18:55:10.899Z,29.20
2022-10-22T18:58:17.980Z,28.80
2022-10-22T19:01:25.723Z,28.20
2022-10-22T19:04:36.707Z,24.20
2022-10-22T19:07:42.606Z,24.00
2022-10-22T19:10:50.122Z,25.00
2022-10-22T19:13:55.762Z,33.00
2022-10-22T19:17:03.564Z,23.90
2022-10-22T19:20:11.251Z,22.60
2022-10-22T19:23:19.994Z,21.80
2022-10-22T19:26:27.793Z,19.60
2022-10-22T19:29:35.491Z,18.30
2022-10-22T19:32:41.361Z,20.40
2022-10-22T19:38:51.422Z,19.40
2022-10-22T19:41:57.303Z,19.00
2022-10-22T19:45:02.834Z,23.70
2022-10-22T19:48:09.141Z,22.60
2022-10-22T19:51:20.512Z,25.10
2022-10-22T19:54:26.588Z,22.00
2022-10-22T19:57:32.091Z,21.50
2022-10-22T20:00:38.324Z,30.90
2022-10-22T20:03:44.319Z,20.80
2022-10-22T20:06:49.809Z,18.50
2022-10-22T20:09:55.262Z,23.50
2022-10-22T20:13:00.764Z,15.90
2022-10-22T20:16:07.070Z,18.10
2022-10-22T20:19:16.358Z,20.00
2022-10-22T20:22:22.018Z,16.10
2022-10-22T20:25:27.565Z,16.80
2022-10-22T20:28:33.322Z,17.00
2022-10-22T20:31:38.970Z,15.20
2022-10-22T20:34:44.418Z,16.20
2022-10-22T20:37:50.072Z,16.40
2022-10-22T20:41:03.585Z,15.90
2022-10-22T20:44:12.025Z,16.40
2022-10-22T20:47:17.677Z,16.30
2022-10-22T20:50:27.578Z,16.00
2022-10-22T20:53:33.059Z,16.10
2022-10-22T20:56:40.367Z,15.80
2022-10-22T20:59:46.433Z,15.40
2022-10-22T21:02:51.861Z,15.50
2022-10-22T21:05:57.423Z,15.40
2022-10-22T21:09:02.907Z,15.90
2022-10-22T21:12:09.036Z,14.60
2022-10-22T21:15:15.236Z,16.20
2022-10-22T21:21:24.966Z,16.30
2022-10-22T21:24:30.515Z,16.10
2022-10-22T21:27:36.177Z,17.20
2022-10-22T21:30:47.183Z,16.50
2022-10-22T21:33:53.615Z,16.80
2022-10-22T21:36:59.164Z,15.50
2022-10-22T21:40:05.377Z,16.60
2022-10-22T21:46:18.200Z,15.70
2022-10-22T21:49:23.953Z,16.30
2022-10-22T21:52:29.406Z,16.40
2022-10-22T21:55:37.933Z,17.20
2022-10-22T21:58:43.848Z,18.00
2022-10-22T22:01:49.396Z,18.20
2022-10-22T22:04:55.876Z,19.80
2022-10-22T22:08:01.466Z,16.20
2022-10-22T22:11:09.222Z,18.30
2022-10-22T22:14:15.113Z,17.50
2022-10-22T22:17:20.625Z,17.60
2022-10-22T22:20:26.174Z,18.90
2022-10-22T22:23:31.729Z,15.80
2022-10-22T22:26:37.376Z,15.20
2022-10-22T22:29:42.925Z,14.30
2022-10-22T22:32:48.334Z,14.80
2022-10-22T22:35:54.154Z,14.60
2022-10-22T22:38:59.751Z,14.10
2022-10-22T22:42:05.209Z,16.20
2022-10-22T22:45:11.705Z,13.80
2022-10-22T22:48:17.249Z,12.10
2022-10-22T22:51:23.104Z,12.60
2022-10-22T22:54:29.162Z,12.80
2022-10-22T22:57:35.874Z,11.30
2022-10-22T23:03:56.333Z,11.80
2022-10-22T23:07:01.909Z,12.10
2022-10-22T23:10:08.903Z,12.30
2022-10-22T23:13:14.317Z,12.50
2022-10-22T23:16:21.335Z,12.60
2022-10-22T23:19:26.796Z,12.20
2022-10-22T23:22:32.321Z,12.30
2022-10-22T23:25:37.794Z,12.40
2022-10-22T23:28:43.623Z,11.90
2022-10-22T23:31:50.425Z,12.40
2022-10-22T23:34:56.053Z,12.60
2022-10-22T23:38:01.498Z,12.60
2022-10-22T23:41:07.804Z,11.80
2022-10-22T23:44:14.243Z,11.60
2022-10-22T23:47:19.785Z,12.60
2022-10-22T23:50:25.643Z,12.40
2022-10-22T23:53:31.397Z,11.00
2022-10-22T23:56:37.112Z,11.50
2022-10-22T23:59:42.597Z,11.80
